YRBH weather

Royal Brisbane Hospital Helipad Alpha
Brisbane, Queensland, Australia

Public forecast

Using degrees Celsius for public forecast. Weather courtesy of forecast.io.

Closest aviation weather report (METAR) to Royal Brisbane Hospital Helipad Alpha

Closest report is Brisbane International Airport, 6.1 nm (11.2 km) NE. Retrieved 2020/03/31 22:00 UTC (7 minutes ago):

YBBN 312200Z 21008KT 9999 FEW030 24/19 Q1018 NOSIG

Closest aviation forecast (TAF) to Royal Brisbane Hospital Helipad Alpha

Closest forecast is Brisbane International Airport, 6.1 nm (11.2 km) NE. Retrieved 2020/03/31 18:00 UTC (4 hours ago):

TAF YBBN 311724Z 3118/0200 20005KT 9999 SCT018 FM010000 13012KT 9999 FEW035 FM011200 18007KT 9999 SCT020